createdAt,value
2018-12-01T00:00:27.611Z,6.40
2018-12-01T00:03:02.734Z,6.40
2018-12-01T00:05:44.414Z,6.40
2018-12-01T00:08:19.639Z,6.40
2018-12-01T00:10:55.545Z,6.40
2018-12-01T00:13:31.379Z,6.30
2018-12-01T00:16:07.516Z,6.30
2018-12-01T00:18:43.494Z,6.30
2018-12-01T00:21:19.448Z,6.30
2018-12-01T00:23:54.934Z,6.30
2018-12-01T00:26:31.686Z,6.40
2018-12-01T00:29:06.921Z,6.30
2018-12-01T00:31:43.496Z,6.30
2018-12-01T00:34:18.514Z,6.30
2018-12-01T00:36:54.400Z,6.30
2018-12-01T00:39:29.396Z,6.20
2018-12-01T00:42:06.077Z,6.20
2018-12-01T00:44:41.104Z,6.30
2018-12-01T00:47:16.127Z,6.20
2018-12-01T00:49:51.173Z,6.20
2018-12-01T00:52:26.168Z,6.20
2018-12-01T00:55:01.830Z,6.20
2018-12-01T00:57:37.023Z,6.20
2018-12-01T01:00:20.621Z,6.20
2018-12-01T01:02:58.670Z,6.20
2018-12-01T01:05:34.264Z,6.20
2018-12-01T01:08:10.125Z,6.20
2018-12-01T01:10:45.072Z,6.20
2018-12-01T01:13:20.914Z,6.20
2018-12-01T01:15:56.702Z,6.20
2018-12-01T01:18:31.808Z,6.20
2018-12-01T01:21:06.807Z,6.20
2018-12-01T01:23:42.567Z,6.20
2018-12-01T01:26:18.436Z,6.10
2018-12-01T01:28:53.472Z,6.20
2018-12-01T01:31:29.110Z,6.20
2018-12-01T01:34:04.055Z,6.10
2018-12-01T01:36:39.960Z,6.20
2018-12-01T01:39:15.135Z,6.20
2018-12-01T01:41:50.324Z,6.20
2018-12-01T01:44:26.135Z,6.10
2018-12-01T01:47:02.001Z,6.10
2018-12-01T01:49:37.937Z,6.10
2018-12-01T01:52:13.695Z,6.10
2018-12-01T01:54:49.008Z,6.10
2018-12-01T01:57:24.904Z,6.10
2018-12-01T02:00:01.303Z,6.10
2018-12-01T02:02:36.589Z,6.10
2018-12-01T02:05:11.663Z,6.10
2018-12-01T02:07:46.602Z,6.10
2018-12-01T02:10:21.928Z,6.10
2018-12-01T02:12:56.920Z,6.10
2018-12-01T02:15:32.904Z,6.10
2018-12-01T02:18:08.645Z,6.10
2018-12-01T02:20:44.485Z,6.10
2018-12-01T02:23:20.291Z,6.10
2018-12-01T02:25:55.366Z,6.10
2018-12-01T02:28:31.211Z,6.20
2018-12-01T02:31:07.405Z,6.20
2018-12-01T02:33:43.043Z,6.20
2018-12-01T02:36:18.067Z,6.20
2018-12-01T02:38:54.133Z,6.20
2018-12-01T02:41:29.244Z,6.20
2018-12-01T02:44:16.429Z,6.20
2018-12-01T02:47:07.044Z,6.30
2018-12-01T02:49:41.995Z,6.30
2018-12-01T02:52:17.236Z,6.30
2018-12-01T02:54:52.957Z,6.40
2018-12-01T02:57:27.915Z,6.40
2018-12-01T03:00:03.929Z,6.40
2018-12-01T03:02:39.775Z,6.40
2018-12-01T03:05:15.698Z,6.50
2018-12-01T03:07:52.329Z,6.50
2018-12-01T03:10:27.391Z,6.60
2018-12-01T03:13:03.269Z,6.60
2018-12-01T03:15:39.099Z,6.50
2018-12-01T03:18:13.982Z,6.60
2018-12-01T03:20:49.135Z,6.50
2018-12-01T03:23:24.082Z,6.60
2018-12-01T03:25:59.141Z,6.60
2018-12-01T03:28:35.053Z,6.50
2018-12-01T03:31:10.023Z,6.50
2018-12-01T03:33:45.727Z,6.40
2018-12-01T03:36:21.539Z,6.40
2018-12-01T03:38:57.223Z,6.40
2018-12-01T03:41:32.195Z,6.40
2018-12-01T03:44:07.295Z,6.40
2018-12-01T03:46:42.278Z,6.40
2018-12-01T03:49:19.574Z,6.40
2018-12-01T03:51:54.907Z,6.30
2018-12-01T03:54:30.863Z,6.30
2018-12-01T03:57:06.607Z,6.30
2018-12-01T03:59:41.643Z,6.30
2018-12-01T04:02:16.584Z,6.30
2018-12-01T04:04:52.530Z,6.30
2018-12-01T04:07:28.484Z,6.30
2018-12-01T04:10:03.517Z,6.30
2018-12-01T04:12:38.527Z,6.40
2018-12-01T04:15:13.552Z,6.40
2018-12-01T04:17:49.790Z,6.30
2018-12-01T04:20:25.277Z,6.30
2018-12-01T04:23:00.974Z,6.40
2018-12-01T04:25:36.832Z,6.50
2018-12-01T04:28:12.074Z,6.50
2018-12-01T04:30:47.468Z,6.60
2018-12-01T04:33:22.508Z,6.60
2018-12-01T04:35:58.373Z,6.60
2018-12-01T04:38:34.259Z,6.60
2018-12-01T04:41:10.267Z,6.60
2018-12-01T04:43:45.353Z,6.50
2018-12-01T04:46:20.122Z,6.50
2018-12-01T04:48:56.022Z,6.60
2018-12-01T04:51:31.939Z,6.60
2018-12-01T04:54:06.939Z,6.60
2018-12-01T04:56:42.000Z,6.60
2018-12-01T04:59:17.851Z,6.70
2018-12-01T05:01:52.782Z,6.70
2018-12-01T05:04:28.651Z,6.80
2018-12-01T05:07:03.620Z,6.80
2018-12-01T05:09:39.028Z,6.90
2018-12-01T05:12:16.116Z,6.90
2018-12-01T05:14:51.629Z,6.90
2018-12-01T05:17:26.784Z,6.90
2018-12-01T05:20:02.562Z,6.90
2018-12-01T05:22:38.390Z,7.00
2018-12-01T05:25:14.272Z,7.00
2018-12-01T05:27:50.202Z,7.10
2018-12-01T05:30:26.133Z,7.10
2018-12-01T05:33:01.111Z,7.00
2018-12-01T05:35:36.855Z,7.00
2018-12-01T05:38:12.805Z,7.00
2018-12-01T05:40:48.027Z,7.00
2018-12-01T05:43:23.858Z,7.10
2018-12-01T05:45:58.978Z,7.10
2018-12-01T05:48:34.053Z,7.00
2018-12-01T05:51:09.866Z,7.00
2018-12-01T05:53:45.669Z,7.00
2018-12-01T05:56:21.585Z,6.90
2018-12-01T05:58:56.697Z,6.90
2018-12-01T06:01:32.695Z,6.90
2018-12-01T06:04:07.749Z,6.90
2018-12-01T06:06:43.483Z,6.90
2018-12-01T06:09:18.752Z,6.90
2018-12-01T06:11:54.599Z,6.90
2018-12-01T06:14:29.596Z,6.90
2018-12-01T06:17:04.558Z,6.90
2018-12-01T06:19:40.483Z,6.90
2018-12-01T06:22:16.290Z,6.90
2018-12-01T06:24:52.193Z,6.90
2018-12-01T06:27:28.038Z,6.90
2018-12-01T06:30:05.181Z,6.90
2018-12-01T06:32:41.047Z,6.90
2018-12-01T06:35:16.216Z,7.00
2018-12-01T06:37:52.110Z,6.90
2018-12-01T06:40:27.216Z,6.90
2018-12-01T06:43:02.889Z,6.90
2018-12-01T06:45:37.995Z,6.80
2018-12-01T06:48:13.686Z,6.80
2018-12-01T06:50:48.974Z,6.80
2018-12-01T06:53:24.108Z,6.80
2018-12-01T06:55:59.146Z,6.70
2018-12-01T06:58:34.221Z,6.70
2018-12-01T07:01:10.201Z,6.70
2018-12-01T07:03:45.172Z,6.70
2018-12-01T07:06:22.049Z,6.70
2018-12-01T07:08:57.775Z,6.60
2018-12-01T07:11:32.953Z,6.60
2018-12-01T07:14:08.801Z,6.60
2018-12-01T07:16:43.844Z,6.50
2018-12-01T07:19:19.691Z,6.60
2018-12-01T07:21:55.548Z,6.60
2018-12-01T07:24:30.582Z,6.50
2018-12-01T07:27:06.500Z,6.50
2018-12-01T07:29:42.225Z,6.60
2018-12-01T07:32:17.320Z,6.60
2018-12-01T07:34:52.340Z,6.50
2018-12-01T07:37:28.210Z,6.40
2018-12-01T07:40:13.986Z,6.40
2018-12-01T07:42:49.006Z,6.40
2018-12-01T07:45:24.135Z,6.40
2018-12-01T07:47:59.903Z,6.40
2018-12-01T07:50:35.748Z,6.50
2018-12-01T07:53:10.733Z,6.50
2018-12-01T07:55:47.118Z,6.40
2018-12-01T07:58:22.480Z,6.40
2018-12-01T08:00:57.816Z,6.40
2018-12-01T08:03:32.853Z,6.40
2018-12-01T08:06:08.170Z,6.40
2018-12-01T08:08:43.573Z,6.40
2018-12-01T08:11:19.521Z,6.50
2018-12-01T08:13:54.431Z,6.50
2018-12-01T08:16:30.363Z,6.50
2018-12-01T08:19:06.159Z,6.50
2018-12-01T08:21:41.461Z,6.60
2018-12-01T08:24:16.403Z,6.60
2018-12-01T08:26:51.530Z,6.60
2018-12-01T08:29:27.228Z,6.60
2018-12-01T08:32:02.447Z,6.60
2018-12-01T08:34:38.040Z,6.70
2018-12-01T08:37:13.039Z,6.70
2018-12-01T08:39:48.889Z,6.70
2018-12-01T08:42:24.947Z,6.70
2018-12-01T08:45:00.090Z,6.70
2018-12-01T08:47:35.144Z,6.80
2018-12-01T08:50:18.206Z,6.80
2018-12-01T08:52:54.032Z,6.80
2018-12-01T08:55:29.119Z,6.90
2018-12-01T08:58:05.267Z,6.90
2018-12-01T09:00:42.120Z,6.90
2018-12-01T09:03:19.314Z,6.90
2018-12-01T09:05:54.747Z,7.00
2018-12-01T09:08:29.836Z,7.10
2018-12-01T09:11:08.587Z,7.10
2018-12-01T09:13:50.866Z,7.20
2018-12-01T09:16:28.839Z,7.20
2018-12-01T09:19:03.936Z,7.30
2018-12-01T09:21:38.927Z,7.30
2018-12-01T09:24:14.082Z,7.40
2018-12-01T09:26:49.067Z,7.40
2018-12-01T09:29:24.897Z,7.50
2018-12-01T09:31:59.810Z,7.60
2018-12-01T09:34:34.807Z,7.60
2018-12-01T09:37:09.908Z,7.70
2018-12-01T09:39:45.944Z,7.80
2018-12-01T09:42:24.781Z,7.90
2018-12-01T09:44:56.960Z,7.90
2018-12-01T09:47:31.915Z,7.90
2018-12-01T09:50:09.617Z,7.90
2018-12-01T09:52:47.228Z,8.00
2018-12-01T09:55:24.309Z,8.10
2018-12-01T09:58:00.194Z,8.10
2018-12-01T10:00:35.792Z,8.10
2018-12-01T10:03:11.614Z,8.10
2018-12-01T10:05:47.561Z,8.20
2018-12-01T10:08:23.293Z,8.10
2018-12-01T10:10:59.191Z,8.20
2018-12-01T10:13:34.136Z,8.30
2018-12-01T10:16:09.193Z,8.30
2018-12-01T10:18:46.344Z,8.30
2018-12-01T10:21:21.864Z,8.30
2018-12-01T10:23:58.787Z,8.30
2018-12-01T10:26:34.493Z,8.30
2018-12-01T10:29:09.576Z,8.40
2018-12-01T10:31:44.515Z,8.50
2018-12-01T10:34:20.433Z,8.50
2018-12-01T10:36:56.330Z,8.50
2018-12-01T10:39:31.535Z,8.60
2018-12-01T10:42:07.396Z,8.70
2018-12-01T10:44:43.238Z,8.80
2018-12-01T10:47:19.154Z,8.90
2018-12-01T10:49:54.149Z,9.00
2018-12-01T10:52:30.002Z,9.10
2018-12-01T10:55:10.251Z,9.20
2018-12-01T10:57:45.908Z,9.30
2018-12-01T11:00:26.510Z,9.40
2018-12-01T11:03:11.236Z,9.30
2018-12-01T11:05:47.045Z,9.40
2018-12-01T11:08:22.574Z,9.40
2018-12-01T11:10:58.487Z,9.40
2018-12-01T11:13:34.367Z,9.40
2018-12-01T11:16:09.349Z,9.40
2018-12-01T11:18:45.175Z,9.30
2018-12-01T11:21:21.146Z,9.40
2018-12-01T11:23:56.810Z,9.30
2018-12-01T11:26:32.753Z,9.30
2018-12-01T11:29:08.430Z,9.40
2018-12-01T11:31:44.452Z,9.50
2018-12-01T11:34:20.203Z,9.40
2018-12-01T11:36:55.242Z,9.40
2018-12-01T11:39:30.277Z,9.40
2018-12-01T11:42:06.289Z,9.40
2018-12-01T11:44:41.999Z,9.50
2018-12-01T11:47:18.166Z,9.50
2018-12-01T11:49:52.676Z,9.60
2018-12-01T11:52:27.581Z,9.60
2018-12-01T11:55:03.873Z,9.60
2018-12-01T11:57:39.228Z,9.70
2018-12-01T12:00:16.924Z,9.70
2018-12-01T12:02:52.125Z,9.70
2018-12-01T12:05:27.177Z,9.70
2018-12-01T12:08:24.987Z,9.70
2018-12-01T12:11:00.763Z,9.70
2018-12-01T12:13:36.371Z,9.70
2018-12-01T12:16:11.463Z,9.70
2018-12-01T12:18:47.423Z,9.80
2018-12-01T12:21:24.035Z,9.80
2018-12-01T12:23:59.302Z,9.80
2018-12-01T12:26:35.183Z,9.70
2018-12-01T12:29:10.207Z,9.70
2018-12-01T12:31:46.122Z,9.70
2018-12-01T12:34:27.079Z,9.70
2018-12-01T12:37:03.482Z,9.70
2018-12-01T12:39:38.956Z,9.80
2018-12-01T12:42:14.944Z,9.80
2018-12-01T12:44:50.569Z,9.80
2018-12-01T12:47:26.470Z,9.70
2018-12-01T12:50:01.582Z,9.70
2018-12-01T12:52:36.566Z,9.70
2018-12-01T12:55:14.710Z,9.70
2018-12-01T12:57:50.419Z,9.80
2018-12-01T13:00:26.323Z,9.80
2018-12-01T13:03:05.340Z,9.80
2018-12-01T13:05:46.414Z,9.80
2018-12-01T13:08:21.569Z,9.80
2018-12-01T13:10:58.317Z,9.80
2018-12-01T13:13:33.318Z,9.80
2018-12-01T13:16:09.288Z,9.80
2018-12-01T13:18:45.136Z,9.80
2018-12-01T13:21:21.764Z,9.80
2018-12-01T13:23:57.579Z,9.80
2018-12-01T13:26:32.623Z,9.80
2018-12-01T13:29:08.380Z,9.80
2018-12-01T13:31:43.334Z,9.80
2018-12-01T13:34:19.279Z,9.80
2018-12-01T13:36:54.301Z,9.80
2018-12-01T13:39:29.994Z,9.80
2018-12-01T13:42:05.335Z,9.70
2018-12-01T13:44:40.672Z,9.60
2018-12-01T13:47:16.663Z,9.60
2018-12-01T13:49:52.643Z,9.60
2018-12-01T13:52:28.458Z,9.60
2018-12-01T13:55:04.581Z,9.60
2018-12-01T13:57:40.168Z,9.60
2018-12-01T14:00:18.441Z,9.60
2018-12-01T14:02:53.533Z,9.60
2018-12-01T14:05:29.561Z,9.60
2018-12-01T14:08:05.906Z,9.60
2018-12-01T14:10:43.051Z,9.60
2018-12-01T14:13:18.085Z,9.50
2018-12-01T14:15:54.033Z,9.60
2018-12-01T14:18:29.143Z,9.50
2018-12-01T14:21:05.085Z,9.40
2018-12-01T14:23:40.678Z,9.40
2018-12-01T14:26:16.070Z,9.30
2018-12-01T14:28:51.815Z,9.30
2018-12-01T14:31:27.061Z,9.30
2018-12-01T14:34:02.974Z,9.20
2018-12-01T14:36:38.898Z,9.10
2018-12-01T14:39:14.226Z,9.10
2018-12-01T14:41:49.283Z,9.00
2018-12-01T14:44:25.222Z,8.90
2018-12-01T14:47:01.179Z,8.90
2018-12-01T14:49:36.487Z,8.90
2018-12-01T14:52:12.279Z,8.80
2018-12-01T14:54:47.201Z,8.80
2018-12-01T14:57:22.736Z,8.70
2018-12-01T14:59:58.019Z,8.70
2018-12-01T15:02:33.900Z,8.70
2018-12-01T15:05:10.037Z,8.70
2018-12-01T15:07:46.631Z,8.60
2018-12-01T15:10:23.864Z,8.60
2018-12-01T15:12:59.193Z,8.60
2018-12-01T15:15:34.244Z,8.60
2018-12-01T15:18:10.079Z,8.60
2018-12-01T15:20:45.841Z,8.60
2018-12-01T15:23:20.758Z,8.50
2018-12-01T15:25:56.872Z,8.50
2018-12-01T15:28:32.392Z,8.50
2018-12-01T15:31:07.944Z,8.50
2018-12-01T15:33:43.693Z,8.50
2018-12-01T15:36:19.629Z,8.40
2018-12-01T15:38:55.400Z,8.50
2018-12-01T15:41:30.558Z,8.50
2018-12-01T15:44:06.370Z,8.50
2018-12-01T15:46:42.569Z,8.50
2018-12-01T15:49:17.535Z,8.50
2018-12-01T15:51:53.495Z,8.50
2018-12-01T15:54:29.361Z,8.50
2018-12-01T15:57:04.512Z,8.40
2018-12-01T15:59:40.351Z,8.40
2018-12-01T16:02:16.235Z,8.40
2018-12-01T16:04:52.008Z,8.30
2018-12-01T16:07:27.943Z,8.30
2018-12-01T16:10:03.711Z,8.30
2018-12-01T16:12:39.449Z,8.30
2018-12-01T16:15:18.890Z,8.30
2018-12-01T16:17:54.118Z,8.30
2018-12-01T16:20:29.429Z,8.30
2018-12-01T16:23:04.756Z,8.30
2018-12-01T16:25:40.200Z,8.30
2018-12-01T16:28:15.489Z,8.30
2018-12-01T16:30:50.952Z,8.40
2018-12-01T16:33:26.548Z,8.40
2018-12-01T16:36:02.494Z,8.40
2018-12-01T16:38:38.336Z,8.40
2018-12-01T16:41:24.288Z,8.40
2018-12-01T16:43:59.540Z,8.40
2018-12-01T16:46:35.428Z,8.40
2018-12-01T16:49:11.242Z,8.40
2018-12-01T16:51:47.116Z,8.40
2018-12-01T16:54:22.911Z,8.40
2018-12-01T16:56:58.832Z,8.40
2018-12-01T16:59:33.892Z,8.30
2018-12-01T17:02:09.702Z,8.30
2018-12-01T17:04:44.711Z,8.30
2018-12-01T17:07:20.604Z,8.30
2018-12-01T17:09:56.362Z,8.30
2018-12-01T17:12:32.191Z,8.20
2018-12-01T17:15:12.670Z,8.30
2018-12-01T17:17:48.247Z,8.20
2018-12-01T17:20:23.394Z,8.20
2018-12-01T17:22:59.250Z,8.20
2018-12-01T17:25:35.160Z,8.20
2018-12-01T17:28:16.534Z,8.30
2018-12-01T17:30:51.954Z,8.30
2018-12-01T17:33:27.861Z,8.20
2018-12-01T17:36:03.132Z,8.20
2018-12-01T17:38:38.219Z,8.30
2018-12-01T17:41:18.140Z,8.30
2018-12-01T17:43:54.868Z,8.40
2018-12-01T17:46:30.458Z,8.30
2018-12-01T17:49:06.995Z,8.40
2018-12-01T17:51:42.090Z,8.40
2018-12-01T17:54:18.530Z,8.40
2018-12-01T17:56:53.921Z,8.40
2018-12-01T17:59:28.918Z,8.40
2018-12-01T18:02:03.858Z,8.40
2018-12-01T18:04:39.799Z,8.40
2018-12-01T18:07:14.690Z,8.40
2018-12-01T18:09:50.629Z,8.50
2018-12-01T18:12:26.297Z,8.40
2018-12-01T18:15:01.396Z,8.50
2018-12-01T18:17:36.922Z,8.50
2018-12-01T18:20:17.574Z,8.50
2018-12-01T18:22:55.106Z,8.60
2018-12-01T18:25:33.450Z,8.60
2018-12-01T18:28:09.683Z,8.50
2018-12-01T18:30:44.707Z,8.50
2018-12-01T18:33:21.736Z,8.60
2018-12-01T18:35:57.532Z,8.60
2018-12-01T18:38:34.408Z,8.60
2018-12-01T18:41:10.404Z,8.70
2018-12-01T18:43:46.201Z,8.70
2018-12-01T18:46:21.179Z,8.70
2018-12-01T18:48:57.133Z,8.80
2018-12-01T18:51:32.078Z,8.80
2018-12-01T18:54:07.234Z,8.80
2018-12-01T18:56:42.940Z,8.90
2018-12-01T18:59:18.875Z,8.90
2018-12-01T19:01:54.771Z,9.00
2018-12-01T19:04:29.844Z,9.00
2018-12-01T19:07:04.969Z,9.00
2018-12-01T19:09:40.972Z,9.10
2018-12-01T19:12:16.233Z,9.10
2018-12-01T19:14:51.842Z,9.20
2018-12-01T19:17:26.912Z,9.20
2018-12-01T19:20:02.871Z,9.30
2018-12-01T19:22:38.760Z,9.20
2018-12-01T19:25:19.997Z,9.30
2018-12-01T19:27:57.166Z,9.30
2018-12-01T19:30:32.591Z,9.30
2018-12-01T19:33:13.087Z,9.40
2018-12-01T19:35:49.576Z,9.40
2018-12-01T19:38:27.461Z,9.50
2018-12-01T19:41:02.287Z,9.60
2018-12-01T19:43:38.099Z,9.60
2018-12-01T19:46:13.802Z,9.70
2018-12-01T19:48:48.882Z,9.60
2018-12-01T19:51:24.687Z,9.70
2018-12-01T19:54:00.589Z,9.70
2018-12-01T19:56:35.560Z,9.70
2018-12-01T19:59:10.830Z,9.70
2018-12-01T20:01:46.620Z,9.70
2018-12-01T20:04:22.161Z,9.70
2018-12-01T20:06:57.898Z,9.70
2018-12-01T20:09:33.139Z,9.70
2018-12-01T20:12:09.444Z,9.80
2018-12-01T20:14:44.737Z,9.90
2018-12-01T20:17:20.680Z,9.90
2018-12-01T20:19:55.650Z,9.90
2018-12-01T20:22:31.503Z,9.90
2018-12-01T20:25:08.818Z,9.90
2018-12-01T20:27:44.432Z,9.90
2018-12-01T20:30:20.701Z,10.00
2018-12-01T20:32:56.055Z,10.00
2018-12-01T20:35:37.153Z,10.00
2018-12-01T20:38:16.628Z,9.90
2018-12-01T20:40:51.788Z,10.00
2018-12-01T20:43:27.720Z,10.00
2018-12-01T20:46:03.193Z,10.00
2018-12-01T20:48:39.142Z,10.10
2018-12-01T20:51:15.029Z,10.00
2018-12-01T20:53:50.937Z,10.00
2018-12-01T20:56:28.375Z,10.00
2018-12-01T20:59:04.079Z,10.00
2018-12-01T21:01:39.392Z,10.00
2018-12-01T21:04:15.178Z,10.10
2018-12-01T21:06:50.925Z,10.10
2018-12-01T21:09:25.976Z,10.00
2018-12-01T21:12:02.536Z,10.10
2018-12-01T21:14:37.817Z,10.00
2018-12-01T21:17:12.795Z,9.90
2018-12-01T21:19:49.012Z,9.90
2018-12-01T21:22:24.626Z,9.90
2018-12-01T21:24:59.649Z,9.90
2018-12-01T21:27:35.674Z,9.90
2018-12-01T21:30:16.409Z,9.90
2018-12-01T21:32:56.723Z,9.80
2018-12-01T21:35:31.790Z,9.90
2018-12-01T21:38:09.855Z,9.90
2018-12-01T21:40:45.690Z,9.90
2018-12-01T21:43:21.679Z,9.90
2018-12-01T21:45:57.661Z,10.00
2018-12-01T21:48:32.585Z,9.90
2018-12-01T21:51:07.584Z,9.90
2018-12-01T21:53:43.553Z,9.90
2018-12-01T21:57:22.692Z,9.90
2018-12-01T21:59:58.104Z,9.90
2018-12-01T22:02:33.904Z,10.00
2018-12-01T22:05:13.437Z,10.00
2018-12-01T22:07:48.599Z,10.00
2018-12-01T22:10:23.587Z,10.00
2018-12-01T22:12:59.539Z,10.00
2018-12-01T22:15:34.444Z,10.00
2018-12-01T22:18:10.224Z,10.10
2018-12-01T22:20:45.970Z,10.20
2018-12-01T22:23:21.007Z,10.20
2018-12-01T22:25:56.851Z,10.20
2018-12-01T22:28:35.452Z,10.20
2018-12-01T22:31:09.001Z,10.20
2018-12-01T22:33:44.219Z,10.30
2018-12-01T22:36:19.153Z,10.30
2018-12-01T22:38:56.174Z,10.30
2018-12-01T22:41:32.120Z,10.30
2018-12-01T22:44:08.050Z,10.40
2018-12-01T22:46:43.863Z,10.40
2018-12-01T22:49:19.636Z,10.40
2018-12-01T22:51:54.820Z,10.30
2018-12-01T22:54:29.804Z,10.30
2018-12-01T22:57:06.004Z,10.40
2018-12-01T22:59:41.775Z,10.40
2018-12-01T23:02:16.422Z,10.40
2018-12-01T23:04:52.408Z,10.40
2018-12-01T23:07:28.096Z,10.30
2018-12-01T23:10:04.755Z,10.30
2018-12-01T23:12:40.132Z,10.40
2018-12-01T23:15:17.095Z,10.40
2018-12-01T23:17:52.696Z,10.50
2018-12-01T23:20:28.690Z,10.50
2018-12-01T23:23:04.720Z,10.50
2018-12-01T23:25:40.677Z,10.40
2018-12-01T23:28:16.542Z,10.40
2018-12-01T23:30:53.317Z,10.40
2018-12-01T23:33:28.983Z,10.40
2018-12-01T23:36:04.583Z,10.40
2018-12-01T23:38:39.671Z,10.30
2018-12-01T23:41:14.640Z,10.30
2018-12-01T23:43:50.488Z,10.30
2018-12-01T23:46:26.262Z,10.30
2018-12-01T23:49:03.455Z,10.20
2018-12-01T23:51:39.254Z,10.20
2018-12-01T23:54:15.177Z,10.20
2018-12-01T23:56:51.117Z,10.10
2018-12-01T23:59:26.130Z,10.20
